createdAt,value
2022-11-28T00:01:33.212Z,4.74
2022-11-28T00:04:00.095Z,4.74
2022-11-28T00:06:27.261Z,4.75
2022-11-28T00:08:54.846Z,4.74
2022-11-28T00:11:21.300Z,4.74
2022-11-28T00:13:47.705Z,4.74
2022-11-28T00:16:17.153Z,4.75
2022-11-28T00:18:44.265Z,4.76
2022-11-28T00:21:14.391Z,4.75
2022-11-28T00:23:42.576Z,4.75
2022-11-28T00:26:15.839Z,4.76
2022-11-28T00:28:42.654Z,4.76
2022-11-28T00:31:29.302Z,4.76
2022-11-28T00:33:55.985Z,4.75
2022-11-28T00:36:23.602Z,4.75
2022-11-28T00:38:50.875Z,4.75
2022-11-28T00:41:23.258Z,4.74
2022-11-28T00:43:51.007Z,4.74
2022-11-28T00:46:19.224Z,4.74
2022-11-28T00:48:46.057Z,4.73
2022-11-28T00:51:15.390Z,4.74
2022-11-28T00:53:44.394Z,4.72
2022-11-28T00:56:13.944Z,4.71
2022-11-28T00:58:41.059Z,4.71
2022-11-28T01:01:12.740Z,4.70
2022-11-28T01:03:40.690Z,4.70
2022-11-28T01:06:08.525Z,4.69
2022-11-28T01:08:34.926Z,4.70
2022-11-28T01:11:02.042Z,4.70
2022-11-28T01:13:28.769Z,4.70
2022-11-28T01:15:55.341Z,4.66
2022-11-28T01:18:21.786Z,4.68
2022-11-28T01:20:48.193Z,4.69
2022-11-28T01:23:14.593Z,4.69
2022-11-28T01:25:41.046Z,4.72
2022-11-28T01:28:07.435Z,4.71
2022-11-28T01:30:34.175Z,4.71
2022-11-28T01:33:00.685Z,4.70
2022-11-28T01:35:27.610Z,4.71
2022-11-28T01:37:53.992Z,4.71
2022-11-28T01:40:20.529Z,4.72
2022-11-28T01:42:46.945Z,4.73
2022-11-28T01:45:20.632Z,4.72
2022-11-28T01:47:49.715Z,4.72
2022-11-28T01:50:16.736Z,4.72
2022-11-28T01:52:46.879Z,4.72
2022-11-28T01:55:17.240Z,4.73
2022-11-28T01:57:43.764Z,4.73
2022-11-28T02:00:13.918Z,4.74
2022-11-28T02:02:58.623Z,4.72
2022-11-28T02:05:25.440Z,4.67
2022-11-28T02:07:52.675Z,4.65
2022-11-28T02:10:26.998Z,4.65
2022-11-28T02:13:15.250Z,4.64
2022-11-28T02:16:01.514Z,4.65
2022-11-28T02:18:52.358Z,4.64
2022-11-28T02:21:37.004Z,4.64
2022-11-28T02:24:31.281Z,4.64
2022-11-28T02:27:09.837Z,4.63
2022-11-28T02:30:01.771Z,4.60
2022-11-28T02:32:46.141Z,4.59
2022-11-28T02:35:21.691Z,4.58
2022-11-28T02:37:56.536Z,4.55
2022-11-28T02:40:29.355Z,4.56
2022-11-28T02:43:11.660Z,4.55
2022-11-28T02:45:57.919Z,4.52
2022-11-28T02:48:31.931Z,4.52
2022-11-28T02:51:31.431Z,4.54
2022-11-28T02:54:00.119Z,4.55
2022-11-28T02:56:26.759Z,4.57
2022-11-28T02:58:53.459Z,4.58
2022-11-28T03:01:27.858Z,4.59
2022-11-28T03:04:19.296Z,4.60
2022-11-28T03:07:00.804Z,4.61
2022-11-28T03:09:33.166Z,4.62
2022-11-28T03:12:27.826Z,4.61
2022-11-28T03:15:08.206Z,4.60
2022-11-28T03:17:53.062Z,4.60
2022-11-28T03:20:22.671Z,4.61
2022-11-28T03:23:07.928Z,4.61
2022-11-28T03:25:38.766Z,4.61
2022-11-28T03:28:14.662Z,4.62
2022-11-28T03:30:57.277Z,4.59
2022-11-28T03:33:27.813Z,4.59
2022-11-28T03:36:02.776Z,4.57
2022-11-28T03:38:36.185Z,4.57
2022-11-28T03:41:09.461Z,4.57
2022-11-28T03:43:43.090Z,4.57
2022-11-28T03:46:15.965Z,4.58
2022-11-28T03:48:47.359Z,4.58
2022-11-28T03:51:37.016Z,4.60
2022-11-28T03:54:10.542Z,4.60
2022-11-28T03:56:57.275Z,4.58
2022-11-28T03:59:32.475Z,4.56
2022-11-28T04:02:37.534Z,4.56
2022-11-28T04:05:06.652Z,4.53
2022-11-28T04:08:10.129Z,4.53
2022-11-28T04:11:01.185Z,4.53
2022-11-28T04:13:41.603Z,4.52
2022-11-28T04:16:18.915Z,4.51
2022-11-28T04:18:57.783Z,4.51
2022-11-28T04:21:35.717Z,4.51
2022-11-28T04:24:14.436Z,4.50
2022-11-28T04:26:45.788Z,4.51
2022-11-28T04:29:17.856Z,4.51
2022-11-28T04:31:46.219Z,4.51
2022-11-28T04:34:17.707Z,4.53
2022-11-28T04:36:45.910Z,4.53
2022-11-28T04:39:17.874Z,4.54
2022-11-28T04:41:51.507Z,4.52
2022-11-28T04:44:41.610Z,4.51
2022-11-28T04:47:08.430Z,4.51
2022-11-28T04:49:34.866Z,4.51
2022-11-28T04:52:20.218Z,4.50
2022-11-28T04:55:09.920Z,4.49
2022-11-28T04:57:40.504Z,4.50
2022-11-28T05:00:10.442Z,4.51
2022-11-28T05:02:40.971Z,4.50
2022-11-28T05:05:15.534Z,4.51
2022-11-28T05:07:42.209Z,4.50
2022-11-28T05:10:10.135Z,4.51
2022-11-28T05:12:36.643Z,4.50
2022-11-28T05:15:03.885Z,4.49
2022-11-28T05:17:30.266Z,4.48
2022-11-28T05:19:56.875Z,4.47
2022-11-28T05:22:23.373Z,4.47
2022-11-28T05:24:49.706Z,4.47
2022-11-28T05:27:16.269Z,4.47
2022-11-28T05:29:48.118Z,4.44
2022-11-28T05:32:18.234Z,4.45
2022-11-28T05:34:44.692Z,4.44
2022-11-28T05:37:11.318Z,4.45
2022-11-28T05:39:37.786Z,4.46
2022-11-28T05:42:04.396Z,4.44
2022-11-28T05:44:30.781Z,4.43
2022-11-28T05:46:57.171Z,4.39
2022-11-28T05:49:25.438Z,4.39
2022-11-28T05:51:51.772Z,4.39
2022-11-28T05:54:18.165Z,4.38
2022-11-28T05:56:44.661Z,4.40
2022-11-28T05:59:13.171Z,4.42
2022-11-28T06:01:39.738Z,4.43
2022-11-28T06:04:06.241Z,4.46
2022-11-28T06:06:34.927Z,4.50
2022-11-28T06:09:02.022Z,4.53
2022-11-28T06:11:30.467Z,4.54
2022-11-28T06:13:57.173Z,4.54
2022-11-28T06:16:26.935Z,4.58
2022-11-28T06:18:55.263Z,4.59
2022-11-28T06:21:22.899Z,4.60
2022-11-28T06:23:49.413Z,4.60
2022-11-28T06:26:18.668Z,4.61
2022-11-28T06:28:45.743Z,4.63
2022-11-28T06:31:18.640Z,4.68
2022-11-28T06:33:45.681Z,4.68
2022-11-28T06:36:14.130Z,4.65
2022-11-28T06:38:40.913Z,4.68
2022-11-28T06:41:09.963Z,4.68
2022-11-28T06:43:36.447Z,4.72
2022-11-28T06:46:03.170Z,4.73
2022-11-28T06:48:29.893Z,4.74
2022-11-28T06:51:03.288Z,4.73
2022-11-28T06:53:31.534Z,4.73
2022-11-28T06:55:58.547Z,4.73
2022-11-28T06:58:25.001Z,4.72
2022-11-28T07:00:51.862Z,4.71
2022-11-28T07:03:18.292Z,4.72
2022-11-28T07:05:44.714Z,4.74
2022-11-28T07:08:11.258Z,4.76
2022-11-28T07:10:37.663Z,4.81
2022-11-28T07:13:05.704Z,4.82
2022-11-28T07:15:32.319Z,4.83
2022-11-28T07:17:58.699Z,4.83
2022-11-28T07:20:25.047Z,4.86
2022-11-28T07:22:52.306Z,4.88
2022-11-28T07:25:18.757Z,4.89
2022-11-28T07:27:45.181Z,4.91
2022-11-28T07:30:11.756Z,4.92
2022-11-28T07:32:41.599Z,4.94
2022-11-28T07:35:08.912Z,4.96
2022-11-28T07:37:36.319Z,4.99
2022-11-28T07:40:03.902Z,5.02
2022-11-28T07:42:30.349Z,5.05
2022-11-28T07:44:56.843Z,5.06
2022-11-28T07:47:23.261Z,5.06
2022-11-28T07:49:49.757Z,5.07
2022-11-28T07:52:16.159Z,5.08
2022-11-28T07:54:42.645Z,5.08
2022-11-28T07:57:13.200Z,5.07
2022-11-28T07:59:40.754Z,5.09
2022-11-28T08:02:07.480Z,5.12
2022-11-28T08:04:35.849Z,5.13
2022-11-28T08:07:02.244Z,5.14
2022-11-28T08:09:29.379Z,5.14
2022-11-28T08:11:55.809Z,5.16
2022-11-28T08:14:22.187Z,5.17
2022-11-28T08:16:49.579Z,5.16
2022-11-28T08:19:16.058Z,5.17
2022-11-28T08:21:43.522Z,5.17
2022-11-28T08:24:11.442Z,5.20
2022-11-28T08:26:38.211Z,5.24
2022-11-28T08:29:07.677Z,5.26
2022-11-28T08:31:37.168Z,5.29
2022-11-28T08:34:06.986Z,5.32
2022-11-28T08:36:34.727Z,5.35
2022-11-28T08:39:22.993Z,5.38
2022-11-28T08:41:49.805Z,5.38
2022-11-28T08:44:16.239Z,5.42
2022-11-28T08:46:42.719Z,5.43
2022-11-28T08:49:09.227Z,5.45
2022-11-28T08:51:36.653Z,5.49
2022-11-28T08:54:03.371Z,5.52
2022-11-28T08:56:29.795Z,5.55
2022-11-28T08:58:56.280Z,5.56
2022-11-28T09:01:24.994Z,5.60
2022-11-28T09:03:53.737Z,5.63
2022-11-28T09:06:21.202Z,5.65
2022-11-28T09:08:48.875Z,5.70
2022-11-28T09:11:19.455Z,5.69
2022-11-28T09:13:46.128Z,5.73
2022-11-28T09:16:13.532Z,5.75
2022-11-28T09:18:40.584Z,5.78
2022-11-28T09:21:11.862Z,5.81
2022-11-28T09:23:41.237Z,5.85
2022-11-28T09:26:17.561Z,5.88
2022-11-28T09:28:45.357Z,5.86
2022-11-28T09:31:13.228Z,5.87
2022-11-28T09:33:42.798Z,5.87
2022-11-28T09:36:12.035Z,5.89
2022-11-28T09:38:39.132Z,5.90
2022-11-28T09:41:30.492Z,5.94
2022-11-28T09:44:03.253Z,5.99
2022-11-28T09:46:35.924Z,6.02
2022-11-28T09:49:12.526Z,6.03
2022-11-28T09:52:27.051Z,6.11
2022-11-28T09:55:02.039Z,6.13
2022-11-28T09:57:39.031Z,6.17
2022-11-28T10:00:11.199Z,6.18
2022-11-28T10:02:55.953Z,6.22
2022-11-28T10:05:35.381Z,6.25
2022-11-28T10:08:19.246Z,6.28
2022-11-28T10:11:04.630Z,6.30
2022-11-28T10:14:08.146Z,6.33
2022-11-28T10:17:04.620Z,6.34
2022-11-28T10:19:57.748Z,6.34
2022-11-28T10:22:38.911Z,6.33
2022-11-28T10:25:16.474Z,6.34
2022-11-28T10:27:43.091Z,6.30
2022-11-28T10:30:20.328Z,6.35
2022-11-28T10:32:57.874Z,6.38
2022-11-28T10:35:40.668Z,6.44
2022-11-28T10:38:13.047Z,6.48
2022-11-28T10:41:12.896Z,6.51
2022-11-28T10:44:00.493Z,6.56
2022-11-28T10:46:51.362Z,6.60
2022-11-28T10:49:50.590Z,6.64
2022-11-28T10:52:37.780Z,6.66
2022-11-28T10:55:23.787Z,6.70
2022-11-28T10:57:56.302Z,6.73
2022-11-28T11:00:22.937Z,6.74
2022-11-28T11:02:52.910Z,6.76
2022-11-28T11:05:31.473Z,6.77
2022-11-28T11:08:24.547Z,6.78
2022-11-28T11:11:19.991Z,6.81
2022-11-28T11:14:04.110Z,6.78
2022-11-28T11:16:53.253Z,6.84
2022-11-28T11:19:25.586Z,6.85
2022-11-28T11:22:24.122Z,6.88
2022-11-28T11:25:13.413Z,6.88
2022-11-28T11:27:54.489Z,6.90
2022-11-28T11:30:31.370Z,6.88
2022-11-28T11:33:00.791Z,6.89
2022-11-28T11:35:31.773Z,6.90
2022-11-28T11:38:17.466Z,6.91
2022-11-28T11:40:44.407Z,6.90
2022-11-28T11:43:26.783Z,6.93
2022-11-28T11:46:10.365Z,6.92
2022-11-28T11:48:38.005Z,6.92
2022-11-28T11:51:05.157Z,6.92
2022-11-28T11:53:31.686Z,6.93
2022-11-28T11:56:02.240Z,6.95
2022-11-28T11:58:40.285Z,6.97
2022-11-28T12:01:11.534Z,6.97
2022-11-28T12:03:56.788Z,6.94
2022-11-28T12:06:31.309Z,6.94
2022-11-28T12:09:13.226Z,6.92
2022-11-28T12:11:47.045Z,6.92
2022-11-28T12:14:32.785Z,6.91
2022-11-28T12:17:47.823Z,6.91
2022-11-28T12:20:22.117Z,6.93
2022-11-28T12:23:17.039Z,6.97
2022-11-28T12:26:25.026Z,7.01
2022-11-28T12:29:30.530Z,7.06
2022-11-28T12:32:19.466Z,7.09
2022-11-28T12:34:52.521Z,7.11
2022-11-28T12:38:09.442Z,7.12
2022-11-28T12:40:47.551Z,7.12
2022-11-28T12:43:20.182Z,7.12
2022-11-28T12:46:05.526Z,7.12
2022-11-28T12:48:59.911Z,7.14
2022-11-28T12:51:26.336Z,7.15
2022-11-28T12:54:16.034Z,7.16
2022-11-28T12:56:59.096Z,7.16
2022-11-28T12:59:40.182Z,7.15
2022-11-28T13:02:26.063Z,7.13
2022-11-28T13:05:11.484Z,7.11
2022-11-28T13:07:43.261Z,7.08
2022-11-28T13:10:39.336Z,7.06
2022-11-28T13:13:39.972Z,7.06
2022-11-28T13:16:15.921Z,7.08
2022-11-28T13:18:50.652Z,7.10
2022-11-28T13:21:37.156Z,7.12
2022-11-28T13:24:16.517Z,7.14
2022-11-28T13:26:47.592Z,7.15
2022-11-28T13:29:17.633Z,7.18
2022-11-28T13:32:01.903Z,7.18
2022-11-28T13:34:29.967Z,7.21
2022-11-28T13:40:12.315Z,7.24
2022-11-28T13:43:08.151Z,7.25
2022-11-28T13:45:39.319Z,7.27
2022-11-28T13:49:05.987Z,7.25
2022-11-28T13:51:30.535Z,7.24
2022-11-28T13:54:16.949Z,7.22
2022-11-28T13:57:07.722Z,7.21
2022-11-28T13:59:34.881Z,7.20
2022-11-28T14:02:04.876Z,7.17
2022-11-28T14:04:32.750Z,7.17
2022-11-28T14:07:05.470Z,7.15
2022-11-28T14:09:49.587Z,7.18
2022-11-28T14:12:22.037Z,7.18
2022-11-28T14:14:58.081Z,7.19
2022-11-28T14:17:41.484Z,7.17
2022-11-28T14:20:27.114Z,7.17
2022-11-28T14:23:16.377Z,7.17
2022-11-28T14:25:49.011Z,7.18
2022-11-28T14:28:27.123Z,7.17
2022-11-28T14:31:24.610Z,7.17
2022-11-28T14:33:59.563Z,7.17
2022-11-28T14:36:29.732Z,7.17
2022-11-28T14:39:16.596Z,7.17
2022-11-28T14:42:05.329Z,7.17
2022-11-28T14:44:55.992Z,7.18
2022-11-28T14:47:29.405Z,7.18
2022-11-28T14:50:05.785Z,7.18
2022-11-28T14:52:39.627Z,7.19
2022-11-28T14:55:12.773Z,7.16
2022-11-28T14:57:54.133Z,7.15
2022-11-28T15:00:56.088Z,7.12
2022-11-28T15:03:40.634Z,7.08
2022-11-28T15:06:37.421Z,7.06
2022-11-28T15:09:49.269Z,7.06
2022-11-28T15:13:09.630Z,7.04
2022-11-28T15:16:33.172Z,7.00
2022-11-28T15:20:39.882Z,6.99
2022-11-28T15:23:33.705Z,6.95
2022-11-28T15:34:26.323Z,6.85
2022-11-28T15:43:46.482Z,6.79
2022-11-28T15:46:38.390Z,6.76
2022-11-28T15:49:55.859Z,6.77
2022-11-28T15:53:43.406Z,6.79
2022-11-28T16:04:11.332Z,6.75
2022-11-28T16:06:41.399Z,6.72
2022-11-28T16:09:25.943Z,6.70
2022-11-28T16:11:54.262Z,6.69
2022-11-28T16:14:31.553Z,6.67
2022-11-28T16:16:59.337Z,6.65
2022-11-28T16:19:30.718Z,6.64
2022-11-28T16:22:00.966Z,6.66
2022-11-28T16:24:38.692Z,6.66
2022-11-28T16:27:06.513Z,6.65
2022-11-28T16:29:35.652Z,6.64
2022-11-28T16:32:08.610Z,6.64
2022-11-28T16:34:49.386Z,6.64
2022-11-28T16:37:27.629Z,6.64
2022-11-28T16:40:13.434Z,6.61
2022-11-28T16:42:40.616Z,6.62
2022-11-28T16:45:33.976Z,6.60
2022-11-28T16:52:24.994Z,6.59
2022-11-28T16:55:12.987Z,6.58
2022-11-28T16:58:20.900Z,6.58
2022-11-28T17:01:45.333Z,6.57
2022-11-28T17:16:34.926Z,6.54
2022-11-28T17:19:30.039Z,6.54
2022-11-28T17:29:01.009Z,6.52
2022-11-28T17:45:22.833Z,6.49
2022-11-28T17:47:49.772Z,6.51
2022-11-28T17:50:21.697Z,6.52
2022-11-28T17:52:48.416Z,6.47
2022-11-28T17:55:18.484Z,6.48
2022-11-28T17:57:45.213Z,6.49
2022-11-28T18:00:15.258Z,6.43
2022-11-28T18:02:42.206Z,6.48
2022-11-28T18:05:09.494Z,6.46
2022-11-28T18:07:36.117Z,6.45
2022-11-28T18:10:05.668Z,6.49
2022-11-28T18:12:32.516Z,6.46
2022-11-28T18:15:03.448Z,6.46
2022-11-28T18:17:30.209Z,6.48
2022-11-28T18:19:58.026Z,6.47
2022-11-28T18:22:24.973Z,6.46
2022-11-28T18:24:51.607Z,6.44
2022-11-28T18:27:18.243Z,6.45
2022-11-28T18:29:47.210Z,6.45
2022-11-28T18:32:13.738Z,6.45
2022-11-28T18:34:40.468Z,6.46
2022-11-28T18:37:07.324Z,6.48
2022-11-28T18:39:35.346Z,6.47
2022-11-28T18:42:02.057Z,6.46
2022-11-28T18:44:28.644Z,6.44
2022-11-28T18:46:55.222Z,6.42
2022-11-28T18:49:22.286Z,6.45
2022-11-28T18:51:48.932Z,6.44
2022-11-28T18:54:21.307Z,6.42
2022-11-28T18:56:48.995Z,6.45
2022-11-28T18:59:15.650Z,6.40
2022-11-28T19:01:43.635Z,6.44
2022-11-28T19:04:12.756Z,6.46
2022-11-28T19:06:40.870Z,6.41
2022-11-28T19:09:09.917Z,6.45
2022-11-28T19:11:36.700Z,6.42
2022-11-28T19:14:04.251Z,6.43
2022-11-28T19:16:33.333Z,6.44
2022-11-28T19:19:01.127Z,6.47
2022-11-28T19:21:31.817Z,6.45
2022-11-28T19:23:59.480Z,6.46
2022-11-28T19:26:27.514Z,6.47
2022-11-28T19:28:54.923Z,6.44
2022-11-28T19:31:26.904Z,6.45
2022-11-28T19:34:02.448Z,6.44
2022-11-28T19:36:30.483Z,6.46
2022-11-28T19:38:57.979Z,6.47
2022-11-28T19:41:24.909Z,6.46
2022-11-28T19:43:51.809Z,6.48
2022-11-28T19:46:19.302Z,6.47
2022-11-28T19:48:46.518Z,6.47
2022-11-28T19:51:16.265Z,6.48
2022-11-28T19:53:44.077Z,6.45
2022-11-28T19:56:18.249Z,6.44
2022-11-28T19:58:46.026Z,6.44
2022-11-28T20:01:20.693Z,6.48
2022-11-28T20:03:49.225Z,6.49
2022-11-28T20:06:24.004Z,6.48
2022-11-28T20:08:52.067Z,6.50
2022-11-28T20:11:22.353Z,6.51
2022-11-28T20:13:50.324Z,6.49
2022-11-28T20:16:22.853Z,6.52
2022-11-28T20:18:52.372Z,6.48
2022-11-28T20:21:20.358Z,6.48
2022-11-28T20:23:49.545Z,6.53
2022-11-28T20:26:18.436Z,6.51
2022-11-28T20:28:46.018Z,6.51
2022-11-28T20:31:18.478Z,6.49
2022-11-28T20:33:45.250Z,6.46
2022-11-28T20:36:14.093Z,6.50
2022-11-28T20:38:40.920Z,6.51
2022-11-28T20:41:09.988Z,6.48
2022-11-28T20:43:39.215Z,6.51
2022-11-28T20:46:09.060Z,6.50
2022-11-28T20:48:36.369Z,6.48
2022-11-28T20:51:03.142Z,6.48
2022-11-28T20:53:31.526Z,6.51
2022-11-28T20:56:03.121Z,6.48
2022-11-28T20:58:31.195Z,6.50
2022-11-28T21:00:58.197Z,6.43
2022-11-28T21:03:25.758Z,6.48
2022-11-28T21:05:57.825Z,6.47
2022-11-28T21:08:31.430Z,6.47
2022-11-28T21:10:58.009Z,6.44
2022-11-28T21:13:24.670Z,6.47
2022-11-28T21:15:53.384Z,6.47
2022-11-28T21:18:20.265Z,6.46
2022-11-28T21:20:47.293Z,6.45
2022-11-28T21:23:16.414Z,6.48
2022-11-28T21:25:44.212Z,6.51
2022-11-28T21:28:11.861Z,6.50
2022-11-28T21:30:45.019Z,6.47
2022-11-28T21:33:14.705Z,6.50
2022-11-28T21:35:41.463Z,6.46
2022-11-28T21:38:08.340Z,6.47
2022-11-28T21:40:34.918Z,6.48
2022-11-28T21:43:02.017Z,6.47
2022-11-28T21:45:28.512Z,6.47
2022-11-28T21:47:55.111Z,6.45
2022-11-28T21:50:25.266Z,6.47
2022-11-28T21:52:52.001Z,6.45
2022-11-28T21:55:18.890Z,6.46
2022-11-28T21:57:45.814Z,6.43
2022-11-28T22:00:31.321Z,6.43
2022-11-28T22:03:05.853Z,6.43
2022-11-28T22:05:34.578Z,6.47
2022-11-28T22:08:01.520Z,6.41
2022-11-28T22:10:28.465Z,6.44
2022-11-28T22:12:58.280Z,6.44
2022-11-28T22:15:25.129Z,6.41
2022-11-28T22:17:51.670Z,6.44
2022-11-28T22:20:18.523Z,6.40
2022-11-28T22:22:47.589Z,6.41
2022-11-28T22:25:14.184Z,6.43
2022-11-28T22:27:41.117Z,6.37
2022-11-28T22:30:08.494Z,6.37
2022-11-28T22:32:35.098Z,6.42
2022-11-28T22:35:02.732Z,6.41
2022-11-28T22:37:29.364Z,6.42
2022-11-28T22:39:55.972Z,6.41
2022-11-28T22:42:22.386Z,6.43
2022-11-28T22:44:48.794Z,6.45
2022-11-28T22:47:15.387Z,6.44
2022-11-28T22:49:42.010Z,6.46
2022-11-28T22:52:08.646Z,6.44
2022-11-28T22:54:35.192Z,6.45
2022-11-28T22:57:01.703Z,6.47
2022-11-28T22:59:29.484Z,6.46
2022-11-28T23:01:56.227Z,6.46
2022-11-28T23:04:22.898Z,6.46
2022-11-28T23:06:49.460Z,6.48
2022-11-28T23:09:16.067Z,6.45
2022-11-28T23:11:43.055Z,6.46
2022-11-28T23:14:12.868Z,6.46
2022-11-28T23:16:40.473Z,6.45
2022-11-28T23:19:17.636Z,6.48
2022-11-28T23:21:47.333Z,6.46
2022-11-28T23:24:20.328Z,6.47
2022-11-28T23:26:48.165Z,6.48
2022-11-28T23:29:15.643Z,6.47
2022-11-28T23:31:43.593Z,6.48
2022-11-28T23:34:10.730Z,6.47
2022-11-28T23:36:42.833Z,6.47
2022-11-28T23:39:18.470Z,6.49
2022-11-28T23:41:45.743Z,6.47
2022-11-28T23:44:13.902Z,6.50
2022-11-28T23:46:40.985Z,6.48
2022-11-28T23:49:08.277Z,6.51
2022-11-28T23:51:35.822Z,6.51
2022-11-28T23:54:02.406Z,6.54
2022-11-28T23:56:31.208Z,6.53
2022-11-28T23:59:01.027Z,6.53
